createdAt,value
2022-07-31T00:00:48.612Z,80.88
2022-07-31T00:03:16.844Z,80.90
2022-07-31T00:05:45.023Z,80.74
2022-07-31T00:08:14.537Z,80.74
2022-07-31T00:10:42.716Z,80.91
2022-07-31T00:13:10.825Z,80.58
2022-07-31T00:15:40.217Z,80.93
2022-07-31T00:18:08.824Z,81.04
2022-07-31T00:20:37.192Z,80.91
2022-07-31T00:23:06.030Z,80.82
2022-07-31T00:25:35.643Z,80.52
2022-07-31T00:28:03.797Z,79.90
2022-07-31T00:30:32.047Z,79.56
2022-07-31T00:33:00.171Z,79.14
2022-07-31T00:35:28.350Z,78.67
2022-07-31T00:38:24.751Z,78.92
2022-07-31T00:40:50.552Z,78.41
2022-07-31T00:43:19.629Z,78.11
2022-07-31T00:45:49.417Z,78.02
2022-07-31T00:48:27.888Z,78.69
2022-07-31T00:50:56.518Z,79.06
2022-07-31T00:53:24.718Z,78.94
2022-07-31T00:55:54.343Z,79.01
2022-07-31T00:58:22.513Z,79.05
2022-07-31T01:00:51.250Z,79.39
2022-07-31T01:03:19.873Z,79.03
2022-07-31T01:05:48.116Z,79.67
2022-07-31T01:08:16.976Z,80.09
2022-07-31T01:10:53.629Z,79.65
2022-07-31T01:13:32.413Z,79.42
2022-07-31T01:16:04.588Z,79.70
2022-07-31T01:18:35.940Z,79.12
2022-07-31T01:21:09.957Z,79.16
2022-07-31T01:24:15.574Z,79.27
2022-07-31T01:27:04.297Z,79.46
2022-07-31T01:29:38.874Z,79.86
2022-07-31T01:32:10.924Z,79.58
2022-07-31T01:34:45.649Z,79.31
2022-07-31T01:37:20.837Z,78.77
2022-07-31T01:39:55.836Z,78.19
2022-07-31T01:42:26.128Z,77.66
2022-07-31T01:44:59.478Z,77.64
2022-07-31T01:47:29.234Z,77.40
2022-07-31T01:49:59.579Z,77.07
2022-07-31T01:52:30.263Z,76.10
2022-07-31T01:55:00.007Z,76.06
2022-07-31T01:57:31.659Z,76.31
2022-07-31T02:00:07.325Z,76.01
2022-07-31T02:02:58.652Z,76.30
2022-07-31T02:05:37.517Z,75.45
2022-07-31T02:08:07.804Z,75.02
2022-07-31T02:10:38.429Z,75.10
2022-07-31T02:13:07.550Z,74.74
2022-07-31T02:15:38.830Z,74.35
2022-07-31T02:18:08.591Z,74.36
2022-07-31T02:20:38.305Z,74.78
2022-07-31T02:23:07.566Z,74.60
2022-07-31T02:25:38.138Z,74.80
2022-07-31T02:28:10.310Z,74.91
2022-07-31T02:30:41.986Z,75.10
2022-07-31T02:33:14.969Z,75.09
2022-07-31T02:35:45.920Z,74.41
2022-07-31T02:38:23.316Z,74.45
2022-07-31T02:40:57.012Z,74.70
2022-07-31T02:43:26.785Z,74.54
2022-07-31T02:45:58.937Z,74.36
2022-07-31T02:48:28.458Z,73.61
2022-07-31T02:51:00.980Z,73.17
2022-07-31T02:53:30.947Z,73.49
2022-07-31T02:56:04.557Z,73.77
2022-07-31T02:58:35.090Z,73.87
2022-07-31T03:01:07.140Z,73.67
2022-07-31T03:03:36.862Z,74.04
2022-07-31T03:06:05.237Z,74.36
2022-07-31T03:08:34.590Z,74.47
2022-07-31T03:11:05.794Z,74.55
2022-07-31T03:13:36.134Z,74.34
2022-07-31T03:16:11.394Z,74.37
2022-07-31T03:18:41.295Z,74.86
2022-07-31T03:21:11.720Z,75.01
2022-07-31T03:23:40.361Z,74.38
2022-07-31T03:26:15.161Z,74.39
2022-07-31T03:28:43.778Z,74.28
2022-07-31T03:31:13.645Z,73.74
2022-07-31T03:33:42.674Z,74.23
2022-07-31T03:36:11.331Z,73.09
2022-07-31T03:38:43.185Z,73.07
2022-07-31T03:41:34.075Z,73.39
2022-07-31T03:44:02.514Z,73.39
2022-07-31T03:46:33.666Z,72.90
2022-07-31T03:49:02.118Z,72.98
2022-07-31T03:51:30.746Z,72.54
2022-07-31T03:53:59.692Z,72.11
2022-07-31T03:56:51.070Z,72.29
2022-07-31T03:59:21.558Z,72.66
2022-07-31T04:02:10.552Z,72.08
2022-07-31T04:04:44.365Z,72.16
2022-07-31T04:07:12.722Z,72.92
2022-07-31T04:09:41.069Z,72.83
2022-07-31T04:12:11.219Z,73.08
2022-07-31T04:14:39.569Z,73.17
2022-07-31T04:17:09.107Z,73.53
2022-07-31T04:19:37.394Z,73.10
2022-07-31T04:22:06.653Z,72.50
2022-07-31T04:24:35.566Z,72.66
2022-07-31T04:27:26.327Z,73.48
2022-07-31T04:29:54.452Z,73.69
2022-07-31T04:32:24.334Z,73.38
2022-07-31T04:34:56.035Z,73.17
2022-07-31T04:37:24.096Z,73.34
2022-07-31T04:39:52.701Z,72.97
2022-07-31T04:42:21.370Z,72.72
2022-07-31T04:44:49.647Z,72.93
2022-07-31T04:47:18.008Z,73.00
2022-07-31T04:49:51.725Z,73.06
2022-07-31T04:52:22.570Z,72.78
2022-07-31T04:54:51.986Z,72.89
2022-07-31T04:57:22.089Z,72.42
2022-07-31T04:59:58.599Z,72.77
2022-07-31T05:02:30.102Z,73.19
2022-07-31T05:05:00.112Z,73.27
2022-07-31T05:07:39.144Z,73.87
2022-07-31T05:10:35.363Z,74.16
2022-07-31T05:13:03.790Z,74.21
2022-07-31T05:15:33.922Z,74.63
2022-07-31T05:18:01.994Z,76.21
2022-07-31T05:20:43.994Z,76.36
2022-07-31T05:23:32.976Z,76.35
2022-07-31T05:26:16.494Z,77.29
2022-07-31T05:28:46.694Z,79.60
2022-07-31T05:31:15.298Z,80.59
2022-07-31T05:33:44.184Z,82.34
2022-07-31T05:36:14.334Z,83.89
2022-07-31T05:38:43.526Z,84.79
2022-07-31T05:41:49.096Z,84.46
2022-07-31T05:44:35.617Z,85.02
2022-07-31T05:47:03.771Z,85.10
2022-07-31T05:49:32.595Z,84.51
2022-07-31T05:52:03.540Z,84.33
2022-07-31T05:54:33.435Z,84.37
2022-07-31T05:57:33.567Z,83.49
2022-07-31T06:00:03.873Z,84.27
2022-07-31T06:02:40.373Z,83.95
2022-07-31T06:05:27.564Z,83.79
2022-07-31T06:07:57.137Z,84.19
2022-07-31T06:10:25.937Z,84.09
2022-07-31T06:12:54.826Z,84.42
2022-07-31T06:15:23.426Z,84.36
2022-07-31T06:17:51.799Z,84.86
2022-07-31T06:20:26.088Z,85.31
2022-07-31T06:22:55.512Z,85.19
2022-07-31T06:25:28.756Z,85.04
2022-07-31T06:28:07.004Z,85.20
2022-07-31T06:30:39.698Z,84.36
2022-07-31T06:33:08.804Z,84.74
2022-07-31T06:35:45.022Z,83.91
2022-07-31T06:38:34.992Z,82.73
2022-07-31T06:41:40.549Z,83.16
2022-07-31T06:44:27.323Z,82.50
2022-07-31T06:47:15.985Z,82.69
2022-07-31T06:50:03.043Z,81.09
2022-07-31T06:52:36.888Z,80.32
2022-07-31T06:55:07.378Z,80.27
2022-07-31T06:57:38.919Z,79.75
2022-07-31T07:00:20.046Z,78.56
2022-07-31T07:02:51.917Z,77.98
2022-07-31T07:05:21.635Z,78.32
2022-07-31T07:07:53.025Z,76.89
2022-07-31T07:10:21.250Z,75.88
2022-07-31T07:13:02.668Z,75.81
2022-07-31T07:15:34.874Z,74.89
2022-07-31T07:18:03.062Z,75.79
2022-07-31T07:20:48.260Z,76.23
2022-07-31T07:23:16.361Z,75.96
2022-07-31T07:26:01.707Z,75.61
2022-07-31T07:28:31.714Z,75.01
2022-07-31T07:31:03.543Z,75.84
2022-07-31T07:33:41.241Z,74.95
2022-07-31T07:36:22.795Z,75.21
2022-07-31T07:38:55.192Z,74.72
2022-07-31T07:41:25.061Z,73.76
2022-07-31T07:43:55.161Z,73.43
2022-07-31T07:46:27.330Z,74.92
2022-07-31T07:48:59.155Z,75.87
2022-07-31T07:52:00.141Z,75.13
2022-07-31T07:54:34.697Z,75.06
2022-07-31T07:57:41.344Z,74.01
2022-07-31T08:00:29.604Z,73.26
2022-07-31T08:03:48.168Z,74.10
2022-07-31T08:05:50.875Z,73.57
2022-07-31T08:08:18.981Z,74.25
2022-07-31T08:10:49.748Z,73.38
2022-07-31T08:13:36.489Z,72.72
2022-07-31T08:16:27.679Z,71.38
2022-07-31T08:18:58.635Z,70.79
2022-07-31T08:21:27.906Z,70.07
2022-07-31T08:23:56.477Z,70.19
2022-07-31T08:26:27.432Z,70.07
2022-07-31T08:28:57.134Z,69.39
2022-07-31T08:31:29.598Z,69.37
2022-07-31T08:34:31.437Z,69.22
2022-07-31T08:37:51.231Z,69.34
2022-07-31T08:39:52.849Z,69.03
2022-07-31T08:42:21.145Z,67.21
2022-07-31T08:44:49.273Z,66.38
2022-07-31T08:47:23.651Z,66.19
2022-07-31T08:49:53.867Z,65.95
2022-07-31T08:52:24.945Z,65.83
2022-07-31T08:55:08.676Z,65.32
2022-07-31T08:57:36.856Z,65.55
2022-07-31T09:00:07.389Z,65.30
2022-07-31T09:02:36.988Z,64.98
2022-07-31T09:05:42.196Z,64.99
2022-07-31T09:08:15.070Z,65.91
2022-07-31T09:10:49.925Z,66.07
2022-07-31T09:13:20.340Z,65.47
2022-07-31T09:15:52.721Z,65.28
2022-07-31T09:18:25.180Z,65.81
2022-07-31T09:21:09.156Z,65.30
2022-07-31T09:23:46.276Z,65.18
2022-07-31T09:26:15.407Z,65.52
2022-07-31T09:28:46.237Z,66.39
2022-07-31T09:31:15.030Z,66.86
2022-07-31T09:34:30.801Z,66.62
2022-07-31T09:37:16.311Z,66.57
2022-07-31T09:40:21.241Z,66.74
2022-07-31T09:43:19.834Z,65.99
2022-07-31T09:45:58.832Z,66.21
2022-07-31T09:48:28.590Z,66.12
2022-07-31T09:51:00.911Z,66.18
2022-07-31T09:53:43.674Z,66.47
2022-07-31T09:56:33.187Z,66.39
2022-07-31T09:59:03.358Z,66.18
2022-07-31T10:01:36.497Z,66.16
2022-07-31T10:04:08.085Z,66.24
2022-07-31T10:06:39.142Z,65.59
2022-07-31T10:09:08.965Z,65.24
2022-07-31T10:11:59.783Z,65.69
2022-07-31T10:14:32.218Z,65.74
2022-07-31T10:17:04.758Z,65.31
2022-07-31T10:20:02.318Z,65.42
2022-07-31T10:23:06.709Z,64.58
2022-07-31T10:25:38.927Z,64.40
2022-07-31T10:28:08.036Z,65.04
2022-07-31T10:30:39.107Z,65.40
2022-07-31T10:33:27.924Z,64.47
2022-07-31T10:36:21.053Z,65.36
2022-07-31T10:39:17.147Z,65.47
2022-07-31T10:42:06.552Z,65.45
2022-07-31T10:44:42.506Z,65.32
2022-07-31T10:47:20.354Z,65.15
2022-07-31T10:50:22.346Z,64.03
2022-07-31T10:53:09.723Z,63.82
2022-07-31T10:56:03.539Z,62.67
2022-07-31T10:58:49.602Z,62.83
2022-07-31T11:01:52.910Z,63.07
2022-07-31T11:04:40.059Z,63.27
2022-07-31T11:07:20.109Z,62.93
2022-07-31T11:10:17.963Z,62.64
2022-07-31T11:13:11.963Z,62.08
2022-07-31T11:16:06.729Z,61.72
2022-07-31T11:19:09.100Z,60.78
2022-07-31T11:21:39.530Z,61.04
2022-07-31T11:24:15.754Z,60.23
2022-07-31T11:26:50.542Z,60.68
2022-07-31T11:30:01.031Z,60.47
2022-07-31T11:32:25.220Z,59.42
2022-07-31T11:34:55.816Z,59.46
2022-07-31T11:37:30.574Z,59.97
2022-07-31T11:40:14.933Z,59.10
2022-07-31T11:42:44.786Z,59.36
2022-07-31T11:45:16.759Z,59.46
2022-07-31T11:48:12.564Z,59.75
2022-07-31T11:50:41.195Z,59.59
2022-07-31T11:53:09.395Z,58.97
2022-07-31T11:55:46.632Z,59.30
2022-07-31T11:58:16.725Z,59.48
2022-07-31T12:00:50.961Z,60.42
2022-07-31T12:03:20.363Z,60.88
2022-07-31T12:05:49.804Z,59.88
2022-07-31T12:08:18.227Z,59.02
2022-07-31T12:10:47.638Z,57.59
2022-07-31T12:13:17.573Z,56.59
2022-07-31T12:15:58.408Z,55.03
2022-07-31T12:18:29.806Z,54.69
2022-07-31T12:21:00.437Z,54.33
2022-07-31T12:23:41.347Z,55.33
2022-07-31T12:26:12.359Z,55.71
2022-07-31T12:28:40.686Z,56.20
2022-07-31T12:31:10.185Z,56.28
2022-07-31T12:33:42.649Z,55.90
2022-07-31T12:36:15.433Z,56.42
2022-07-31T12:38:45.057Z,57.17
2022-07-31T12:41:16.044Z,58.26
2022-07-31T12:43:51.098Z,58.58
2022-07-31T12:46:22.836Z,59.18
2022-07-31T12:48:52.079Z,59.21
2022-07-31T12:51:44.195Z,59.14
2022-07-31T12:54:10.162Z,59.24
2022-07-31T12:56:39.631Z,59.32
2022-07-31T12:59:08.728Z,60.00
2022-07-31T13:01:38.361Z,60.35
2022-07-31T13:04:07.830Z,60.48
2022-07-31T13:06:37.554Z,60.06
2022-07-31T13:09:06.090Z,59.68
2022-07-31T13:11:45.626Z,59.25
2022-07-31T13:14:15.923Z,59.50
2022-07-31T13:16:45.552Z,60.18
2022-07-31T13:19:14.140Z,60.32
2022-07-31T13:21:48.838Z,60.69
2022-07-31T13:24:19.561Z,60.56
2022-07-31T13:26:48.186Z,60.82
2022-07-31T13:29:16.959Z,61.51
2022-07-31T13:31:46.718Z,61.65
2022-07-31T13:34:14.981Z,61.62
2022-07-31T13:36:43.261Z,61.72
2022-07-31T13:39:11.921Z,60.64
2022-07-31T13:41:40.465Z,61.19
2022-07-31T13:44:09.768Z,60.70
2022-07-31T13:46:38.123Z,60.77
2022-07-31T13:49:10.609Z,60.03
2022-07-31T13:51:39.593Z,59.46
2022-07-31T13:54:08.621Z,58.17
2022-07-31T13:56:42.524Z,58.34
2022-07-31T13:59:13.253Z,57.58
2022-07-31T14:02:12.984Z,57.13
2022-07-31T14:04:38.742Z,55.41
2022-07-31T14:07:08.329Z,54.28
2022-07-31T14:09:37.824Z,53.55
2022-07-31T14:12:06.831Z,52.74
2022-07-31T14:14:35.542Z,52.26
2022-07-31T14:17:03.733Z,51.74
2022-07-31T14:19:43.913Z,51.16
2022-07-31T14:22:13.177Z,51.60
2022-07-31T14:24:41.728Z,51.79
2022-07-31T14:27:18.030Z,51.91
2022-07-31T14:29:46.787Z,51.16
2022-07-31T14:32:14.925Z,52.16
2022-07-31T14:34:44.479Z,53.09
2022-07-31T14:37:12.734Z,54.25
2022-07-31T14:39:42.797Z,55.12
2022-07-31T14:42:11.449Z,56.57
2022-07-31T14:44:41.981Z,57.20
2022-07-31T14:47:10.854Z,58.44
2022-07-31T14:50:09.129Z,59.83
2022-07-31T14:52:29.661Z,60.43
2022-07-31T14:54:59.884Z,62.01
2022-07-31T14:57:28.912Z,62.56
2022-07-31T14:59:57.083Z,62.05
2022-07-31T15:02:25.302Z,61.37
2022-07-31T15:04:54.681Z,59.78
2022-07-31T15:07:43.874Z,59.63
2022-07-31T15:10:13.123Z,58.07
2022-07-31T15:12:41.234Z,57.17
2022-07-31T15:15:10.706Z,54.76
2022-07-31T15:17:38.811Z,53.62
2022-07-31T15:20:07.980Z,53.24
2022-07-31T15:22:36.208Z,51.84
2022-07-31T15:25:04.315Z,50.92
2022-07-31T15:27:33.950Z,50.76
2022-07-31T15:30:06.527Z,50.69
2022-07-31T15:32:36.807Z,50.31
2022-07-31T15:35:06.771Z,49.95
2022-07-31T15:37:36.280Z,49.64
2022-07-31T15:40:07.152Z,49.88
2022-07-31T15:42:40.586Z,49.50
2022-07-31T15:45:10.693Z,49.65
2022-07-31T15:47:39.293Z,49.67
2022-07-31T15:50:09.813Z,49.87
2022-07-31T15:52:38.496Z,49.92
2022-07-31T15:55:08.852Z,50.15
2022-07-31T15:57:38.576Z,50.27
2022-07-31T16:00:11.071Z,50.70
2022-07-31T16:02:41.536Z,50.84
2022-07-31T16:05:36.284Z,51.35
2022-07-31T16:08:28.803Z,51.87
2022-07-31T16:10:54.016Z,52.43
2022-07-31T16:13:24.694Z,53.05
2022-07-31T16:15:53.195Z,53.58
2022-07-31T16:18:21.407Z,53.91
2022-07-31T16:20:50.046Z,54.42
2022-07-31T16:23:18.424Z,54.61
2022-07-31T16:25:46.711Z,54.54
2022-07-31T16:28:15.188Z,54.76
2022-07-31T16:30:46.051Z,54.82
2022-07-31T16:33:14.840Z,55.23
2022-07-31T16:35:43.041Z,54.70
2022-07-31T16:38:11.292Z,54.89
2022-07-31T16:40:39.463Z,54.99
2022-07-31T16:43:47.713Z,55.09
2022-07-31T16:45:58.292Z,55.49
2022-07-31T16:48:26.559Z,55.68
2022-07-31T16:50:55.132Z,55.83
2022-07-31T16:54:10.754Z,55.70
2022-07-31T16:56:12.780Z,55.70
2022-07-31T16:58:40.980Z,55.84
2022-07-31T17:01:58.005Z,55.37
2022-07-31T17:04:03.142Z,55.33
2022-07-31T17:06:36.368Z,55.47
2022-07-31T17:09:17.076Z,55.20
2022-07-31T17:11:48.298Z,55.07
2022-07-31T17:14:16.729Z,54.96
2022-07-31T17:16:49.242Z,54.83
2022-07-31T17:19:42.605Z,54.53
2022-07-31T17:22:07.531Z,54.72
2022-07-31T17:24:37.540Z,55.17
2022-07-31T17:27:08.545Z,55.38
2022-07-31T17:29:37.667Z,55.27
2022-07-31T17:32:11.192Z,55.24
2022-07-31T17:34:39.902Z,55.43
2022-07-31T17:37:08.518Z,55.52
2022-07-31T17:39:37.226Z,55.59
2022-07-31T17:42:05.859Z,55.78
2022-07-31T17:44:37.862Z,56.01
2022-07-31T17:47:09.986Z,55.87
2022-07-31T17:49:38.662Z,55.95
2022-07-31T17:52:07.812Z,55.64
2022-07-31T17:54:35.949Z,55.55
2022-07-31T17:57:07.134Z,55.61
2022-07-31T17:59:35.328Z,55.80
2022-07-31T18:02:04.807Z,55.88
2022-07-31T18:04:36.989Z,55.85
2022-07-31T18:07:07.123Z,55.86
2022-07-31T18:09:36.752Z,56.16
2022-07-31T18:12:05.381Z,56.29
2022-07-31T18:14:34.037Z,56.16
2022-07-31T18:17:02.171Z,56.34
2022-07-31T18:19:30.477Z,56.27
2022-07-31T18:22:00.084Z,56.13
2022-07-31T18:24:28.619Z,56.35
2022-07-31T18:26:58.549Z,56.49
2022-07-31T18:29:26.923Z,56.39
2022-07-31T18:31:55.140Z,56.69
2022-07-31T18:34:23.379Z,56.63
2022-07-31T18:36:54.743Z,56.68
2022-07-31T18:39:24.896Z,56.67
2022-07-31T18:41:53.676Z,56.73
2022-07-31T18:44:22.532Z,56.93
2022-07-31T18:46:51.042Z,57.05
2022-07-31T18:51:01.207Z,57.19
2022-07-31T18:52:11.798Z,57.22
2022-07-31T18:54:41.314Z,57.77
2022-07-31T18:57:09.753Z,58.10
2022-07-31T18:59:38.443Z,57.19
2022-07-31T19:02:12.091Z,57.44
2022-07-31T19:04:40.772Z,57.73
2022-07-31T19:07:08.989Z,58.23
2022-07-31T19:09:37.299Z,58.56
2022-07-31T19:12:08.696Z,58.92
2022-07-31T19:14:37.214Z,59.00
2022-07-31T19:17:05.897Z,59.26
2022-07-31T19:19:51.218Z,57.85
2022-07-31T19:22:23.690Z,58.12
2022-07-31T19:24:52.170Z,58.30
2022-07-31T19:27:21.772Z,58.40
2022-07-31T19:30:10.641Z,58.28
2022-07-31T19:32:39.088Z,58.53
2022-07-31T19:35:07.975Z,58.55
2022-07-31T19:37:36.307Z,58.65
2022-07-31T19:40:06.182Z,58.51
2022-07-31T19:42:35.881Z,59.75
2022-07-31T19:45:04.306Z,60.32
2022-07-31T19:47:32.617Z,60.31
2022-07-31T19:50:00.733Z,58.64
2022-07-31T19:52:28.947Z,58.29
2022-07-31T19:54:57.143Z,58.26
2022-07-31T19:57:25.378Z,61.63
2022-07-31T19:59:54.884Z,61.76
2022-07-31T20:02:23.102Z,62.50
2022-07-31T20:04:51.159Z,63.46
2022-07-31T20:07:19.316Z,62.85
2022-07-31T20:09:48.032Z,62.67
2022-07-31T20:12:17.989Z,62.90
2022-07-31T20:14:46.150Z,63.37
2022-07-31T20:17:15.650Z,63.49
2022-07-31T20:20:02.877Z,63.73
2022-07-31T20:22:32.350Z,63.21
2022-07-31T20:25:00.892Z,63.34
2022-07-31T20:27:39.993Z,63.49
2022-07-31T20:30:11.232Z,62.76
2022-07-31T20:32:48.731Z,63.39
2022-07-31T20:35:47.330Z,63.07
2022-07-31T20:38:05.241Z,63.20
2022-07-31T20:40:33.437Z,63.42
2022-07-31T20:43:03.286Z,63.42
2022-07-31T20:45:31.602Z,63.41
2022-07-31T20:48:01.880Z,63.28
2022-07-31T20:50:30.142Z,63.24
2022-07-31T20:52:58.280Z,62.65
2022-07-31T20:55:26.395Z,62.28
2022-07-31T20:57:54.538Z,61.53
2022-07-31T21:00:22.752Z,61.31
2022-07-31T21:02:51.292Z,61.50
2022-07-31T21:05:26.942Z,61.22
2022-07-31T21:07:56.583Z,61.47
2022-07-31T21:10:28.137Z,61.71
2022-07-31T21:12:58.135Z,61.63
2022-07-31T21:15:41.938Z,61.83
2022-07-31T21:18:13.082Z,62.25
2022-07-31T21:20:50.726Z,62.50
2022-07-31T21:23:22.303Z,62.91
2022-07-31T21:25:50.888Z,63.12
2022-07-31T21:28:19.461Z,62.94
2022-07-31T21:30:48.019Z,63.21
2022-07-31T21:33:16.424Z,63.52
2022-07-31T21:35:46.637Z,63.52
2022-07-31T21:38:17.121Z,63.55
2022-07-31T21:40:46.429Z,63.53
2022-07-31T21:43:18.629Z,63.79
2022-07-31T21:45:57.516Z,63.69
2022-07-31T21:48:30.981Z,63.34
2022-07-31T21:51:01.751Z,63.59
2022-07-31T21:53:29.969Z,64.37
2022-07-31T21:56:01.895Z,64.63
2022-07-31T21:58:30.040Z,64.11
2022-07-31T22:00:58.317Z,64.20
2022-07-31T22:03:26.555Z,63.96
2022-07-31T22:06:11.913Z,63.91
2022-07-31T22:08:41.426Z,64.00
2022-07-31T22:11:09.781Z,64.23
2022-07-31T22:13:37.864Z,63.64
2022-07-31T22:16:07.159Z,64.23
2022-07-31T22:18:35.856Z,64.40
2022-07-31T22:21:06.847Z,64.48
2022-07-31T22:23:35.910Z,64.71
2022-07-31T22:26:05.810Z,64.42
2022-07-31T22:28:34.435Z,64.42
2022-07-31T22:31:03.054Z,64.70
2022-07-31T22:33:31.385Z,64.34
2022-07-31T22:36:02.717Z,64.92
2022-07-31T22:38:31.853Z,64.51
2022-07-31T22:41:00.543Z,64.07
2022-07-31T22:44:13.581Z,64.25
2022-07-31T22:46:19.156Z,64.51
2022-07-31T22:48:47.504Z,64.29
2022-07-31T22:51:15.942Z,63.45
2022-07-31T22:53:44.426Z,63.39
2022-07-31T22:56:16.827Z,63.13
2022-07-31T22:58:46.326Z,63.02
2022-07-31T23:01:14.719Z,62.71
2022-07-31T23:03:42.923Z,62.53
2022-07-31T23:06:30.987Z,62.81
2022-07-31T23:09:00.058Z,62.95
2022-07-31T23:11:28.470Z,62.90
2022-07-31T23:13:57.993Z,62.98
2022-07-31T23:16:26.163Z,62.99
2022-07-31T23:18:54.346Z,63.63
2022-07-31T23:21:23.095Z,63.64
2022-07-31T23:23:51.699Z,63.01
2022-07-31T23:26:20.664Z,63.12
2022-07-31T23:28:49.337Z,63.09
2022-07-31T23:31:19.225Z,63.27
2022-07-31T23:33:48.106Z,64.50
2022-07-31T23:36:17.013Z,64.71
2022-07-31T23:38:45.747Z,65.26
2022-07-31T23:41:14.315Z,66.10
2022-07-31T23:43:41.979Z,66.63
2022-07-31T23:46:26.988Z,66.92
2022-07-31T23:48:56.207Z,66.78
2022-07-31T23:51:24.491Z,66.42
2022-07-31T23:53:52.758Z,66.56
2022-07-31T23:56:20.916Z,66.51
2022-07-31T23:58:49.351Z,66.72
